Terminal Aerodrome Forecast
Issued by NWS Wilmington, NC

Home | Current Version | Previous Version | Text Only | Print | Product List | Glossary On
Versions: 1 2 3 4 5 6 7 8 9 10 11 12 13 14 15 16 17 18
000
FTUS42 KILM 102300 CCA
TAFILM
TAF COR
KILM 102351Z 1100/1124 19011KT P6SM VCSH SCT030 SCT120
      TEMPO 1100/1104 VRB15G25KT 3SM TSRA BKN015 BKN030CB
     FM111400 19006KT P6SM VCTS BKN050CB
     FM111800 16008KT P6SM VCTS BKN040CB=

USA.gov is the U.S. government's official web portal to all federal, state and local government web resources and services.